Time;durP1;ratioP1;P1;durP2;ratioP2;P2;SDS_P1;SDS_P2;PMS_P1;PMS_P2;Temp;Humidity;BMP_temperature;BMP_pressure;BME280_temperature;BME280_humidity;BME280_pressure;Samples;Min_cycle;Max_cycle;Signal;HPM_P1;HPM_P2
2023/04/07 00:01:25;;;;;;;9.60;6.77;;;5.80;99.90;;;;;;5091117;28;20214;-68
2023/04/07 00:03:50;;;;;;;8.90;6.77;;;5.80;99.90;;;;;;5091109;28;20198;-67
2023/04/07 00:06:16;;;;;;;11.83;6.90;;;5.70;99.90;;;;;;5089503;28;20409;-67
2023/04/07 00:08:42;;;;;;;7.50;5.93;;;5.80;99.90;;;;;;5091073;28;20190;-67
2023/04/07 00:11:07;;;;;;;9.90;6.80;;;5.70;99.90;;;;;;5090943;28;20751;-67
2023/04/07 00:13:33;;;;;;;12.40;6.63;;;5.70;99.90;;;;;;5090764;28;20202;-67
2023/04/07 00:15:59;;;;;;;9.20;6.70;;;5.70;99.90;;;;;;5090741;28;20865;-67
2023/04/07 00:18:25;;;;;;;9.97;7.50;;;5.60;99.90;;;;;;5090629;28;20189;-67
2023/04/07 00:20:50;;;;;;;10.50;7.53;;;5.70;99.90;;;;;;5090659;28;20254;-67
2023/04/07 00:23:16;;;;;;;14.40;6.60;;;5.70;99.90;;;;;;5089672;28;20218;-67
2023/04/07 00:25:41;;;;;;;8.67;6.80;;;5.70;99.90;;;;;;5088749;28;20182;-69
2023/04/07 00:28:07;;;;;;;7.60;6.20;;;5.70;99.90;;;;;;5088900;28;20667;-68
2023/04/07 00:30:33;;;;;;;12.43;7.73;;;5.70;99.90;;;;;;5090591;28;20193;-67
2023/04/07 00:32:58;;;;;;;12.00;7.37;;;5.70;99.90;;;;;;5088774;28;20267;-67
2023/04/07 00:35:24;;;;;;;12.17;8.43;;;5.70;99.90;;;;;;5072138;28;20186;-68
2023/04/07 00:37:49;;;;;;;9.87;7.10;;;5.70;99.90;;;;;;5090426;28;20206;-68
2023/04/07 00:40:16;;;;;;;8.33;5.93;;;5.60;99.90;;;;;;5088891;28;20838;-68
2023/04/07 00:42:42;;;;;;;11.23;7.30;;;5.60;99.90;;;;;;5090191;28;20213;-68
2023/04/07 00:45:09;;;;;;;8.60;6.67;;;5.60;99.90;;;;;;5089040;28;20416;-68
2023/04/07 00:47:35;;;;;;;11.67;8.30;;;5.60;99.90;;;;;;5090086;28;20182;-68
2023/04/07 00:50:05;;;;;;;13.00;7.43;;;5.60;99.90;;;;;;5090103;28;20409;-67
2023/04/07 00:52:32;;;;;;;15.23;8.37;;;5.60;99.90;;;;;;5090104;28;20420;-68
2023/04/07 00:54:59;;;;;;;11.43;7.20;;;5.60;99.90;;;;;;5090136;28;20420;-68
2023/04/07 00:57:25;;;;;;;10.70;7.40;;;5.60;99.90;;;;;;5090162;28;21059;-68
2023/04/07 00:59:51;;;;;;;11.87;8.67;;;5.60;99.90;;;;;;5088549;28;20416;-68
2023/04/07 01:02:35;;;;;;;10.20;7.90;;;5.50;99.90;;;;;;5089805;28;21032;-68
2023/04/07 01:05:11;;;;;;;12.00;8.17;;;5.60;99.90;;;;;;5089836;28;20443;-68
2023/04/07 01:07:53;;;;;;;11.80;8.00;;;5.60;99.90;;;;;;5089844;28;21017;-68
2023/04/07 01:10:40;;;;;;;12.80;8.47;;;5.60;99.90;;;;;;5089862;28;20965;-67
2023/04/07 01:13:22;;;;;;;12.33;8.30;;;5.70;99.90;;;;;;5088284;28;20441;-67
2023/04/07 01:15:51;;;;;;;13.27;8.77;;;5.70;99.90;;;;;;5089863;28;20415;-67
2023/04/07 01:18:22;;;;;;;16.10;9.17;;;5.60;99.90;;;;;;5088087;28;20430;-68
2023/04/07 01:20:51;;;;;;;11.43;8.50;;;5.70;99.90;;;;;;5089613;28;20405;-68
2023/04/07 01:23:28;;;;;;;10.53;8.23;;;5.70;99.90;;;;;;5089237;28;20472;-68
2023/04/07 01:26:16;;;;;;;14.33;8.33;;;5.70;99.90;;;;;;5089454;28;20473;-68
2023/04/07 01:28:56;;;;;;;16.10;9.53;;;5.60;99.90;;;;;;5087948;28;20424;-68
2023/04/07 01:31:25;;;;;;;10.10;7.33;;;5.70;99.90;;;;;;5089375;28;20412;-68
2023/04/07 01:33:52;;;;;;;12.83;8.70;;;5.70;99.90;;;;;;5088391;28;20829;-68
2023/04/07 01:36:20;;;;;;;14.23;9.10;;;5.70;99.90;;;;;;5089327;28;20923;-68
2023/04/07 01:38:47;;;;;;;11.87;9.03;;;5.70;99.90;;;;;;5089559;28;20534;-68
2023/04/07 01:41:14;;;;;;;13.70;9.60;;;5.80;99.90;;;;;;5089795;28;20428;-68
2023/04/07 01:43:40;;;;;;;12.90;8.97;;;5.80;99.90;;;;;;5089790;28;20491;-68
2023/04/07 01:46:06;;;;;;;15.10;9.17;;;5.90;99.90;;;;;;5089514;28;20942;-68
2023/04/07 01:48:34;;;;;;;12.57;9.20;;;5.80;99.90;;;;;;5089796;28;20421;-67
2023/04/07 01:50:59;;;;;;;12.13;8.13;;;5.80;99.90;;;;;;5087897;28;20181;-68
2023/04/07 01:53:26;;;;;;;13.73;9.10;;;5.80;99.90;;;;;;5089082;28;20485;-68
2023/04/07 01:55:53;;;;;;;13.70;9.97;;;5.90;99.90;;;;;;5087578;28;20186;-68
2023/04/07 01:58:18;;;;;;;12.07;8.60;;;5.90;99.90;;;;;;5089071;28;20408;-69
2023/04/07 02:00:45;;;;;;;15.27;10.60;;;6.00;99.90;;;;;;5088905;28;20469;-68
2023/04/07 02:03:19;;;;;;;16.53;9.33;;;6.00;99.90;;;;;;5087542;28;20202;-68
2023/04/07 02:05:48;;;;;;;15.40;9.80;;;6.00;99.90;;;;;;5089027;28;20516;-68
2023/04/07 02:08:16;;;;;;;12.33;9.57;;;6.00;99.90;;;;;;5088906;28;20411;-68
2023/04/07 02:10:45;;;;;;;17.67;9.67;;;6.00;99.90;;;;;;5088808;28;20423;-68
2023/04/07 02:13:14;;;;;;;12.63;9.20;;;6.00;99.90;;;;;;5088850;28;20485;-69
2023/04/07 02:15:41;;;;;;;13.40;8.77;;;6.10;99.90;;;;;;5088855;28;20420;-69
2023/04/07 02:18:09;;;;;;;290.30;122.63;;;6.10;99.90;;;;;;5088663;28;20857;-68
2023/04/07 02:20:36;;;;;;;17.90;9.60;;;6.10;99.90;;;;;;5088856;28;20425;-69
2023/04/07 02:23:02;;;;;;;12.93;9.13;;;6.00;99.90;;;;;;5088657;28;20927;-68
2023/04/07 02:25:30;;;;;;;17.67;9.90;;;6.10;99.90;;;;;;5088830;28;20420;-68
2023/04/07 02:27:58;;;;;;;13.40;9.50;;;6.10;99.90;;;;;;5088707;28;21230;-69
2023/04/07 02:30:25;;;;;;;14.87;9.83;;;6.10;99.90;;;;;;5088537;28;20427;-68
2023/04/07 02:32:51;;;;;;;11.20;8.67;;;6.10;99.90;;;;;;5088389;28;20497;-68
2023/04/07 02:35:17;;;;;;;15.53;9.07;;;6.10;99.90;;;;;;5088488;28;20515;-67
2023/04/07 02:37:43;;;;;;;13.87;9.77;;;6.10;99.90;;;;;;5088182;28;20526;-69
2023/04/07 02:40:09;;;;;;;14.17;9.43;;;6.10;99.90;;;;;;5088550;28;20422;-68
2023/04/07 02:42:35;;;;;;;13.00;9.10;;;6.20;99.90;;;;;;5087069;28;20922;-68
2023/04/07 02:45:02;;;;;;;12.80;8.17;;;6.20;99.90;;;;;;5088369;28;20502;-67
2023/04/07 02:47:27;;;;;;;14.63;9.57;;;6.20;99.90;;;;;;5071688;28;20431;-69
2023/04/07 02:49:53;;;;;;;13.83;9.67;;;6.20;99.90;;;;;;5092349;28;20877;-68
2023/04/07 02:52:19;;;;;;;16.67;9.70;;;6.20;99.90;;;;;;5092353;28;20202;-69
2023/04/07 02:54:45;;;;;;;13.37;9.00;;;6.20;99.90;;;;;;5092585;28;20175;-67
2023/04/07 02:57:10;;;;;;;10.97;8.30;;;6.30;99.90;;;;;;5092638;28;20541;-68
2023/04/07 02:59:36;;;;;;;12.40;8.67;;;6.30;99.90;;;;;;5091485;28;20452;-67
2023/04/07 03:02:01;;;;;;;13.57;9.17;;;6.30;99.90;;;;;;5092873;28;20293;-67
2023/04/07 03:04:27;;;;;;;14.20;9.37;;;6.30;99.90;;;;;;5092763;28;20686;-68
2023/04/07 03:06:53;;;;;;;14.77;10.07;;;6.20;99.90;;;;;;5092376;28;20243;-68
2023/04/07 03:09:18;;;;;;;11.17;7.73;;;6.20;99.90;;;;;;5091228;28;20199;-67
2023/04/07 03:11:44;;;;;;;12.70;8.80;;;6.20;99.90;;;;;;5092356;28;20578;-67
2023/04/07 03:14:09;;;;;;;12.63;9.10;;;6.20;99.90;;;;;;5091131;28;20187;-67
2023/04/07 03:16:35;;;;;;;12.67;9.10;;;6.20;99.90;;;;;;5092146;28;20182;-67
2023/04/07 03:19:01;;;;;;;13.73;9.10;;;6.20;99.90;;;;;;5092087;28;20187;-67
2023/04/07 03:21:27;;;;;;;13.53;8.73;;;6.20;99.90;;;;;;5091758;28;20312;-68
2023/04/07 03:23:53;;;;;;;15.40;9.00;;;6.20;99.90;;;;;;5090557;28;20270;-67
2023/04/07 03:26:20;;;;;;;14.07;8.40;;;6.20;99.90;;;;;;5091837;28;20950;-68
2023/04/07 03:28:46;;;;;;;16.20;9.37;;;6.20;99.90;;;;;;5091973;28;20454;-68
2023/04/07 03:31:11;;;;;;;15.10;10.20;;;6.20;99.90;;;;;;5091623;28;20427;-68
2023/04/07 03:33:37;;;;;;;14.03;9.80;;;6.20;99.90;;;;;;5091722;28;20210;-68
2023/04/07 03:36:03;;;;;;;14.00;8.43;;;6.20;99.90;;;;;;5091914;28;20955;-68
2023/04/07 03:38:28;;;;;;;14.63;9.17;;;6.30;99.90;;;;;;5091792;28;20257;-68
2023/04/07 03:40:54;;;;;;;16.80;9.93;;;6.30;99.90;;;;;;5091670;28;20179;-68
2023/04/07 03:43:20;;;;;;;12.00;8.80;;;6.20;99.90;;;;;;5089868;28;20293;-68
2023/04/07 03:45:46;;;;;;;13.63;9.17;;;6.20;99.90;;;;;;5091353;28;20550;-68
2023/04/07 03:48:11;;;;;;;12.60;9.63;;;6.10;99.90;;;;;;5091450;28;20239;-68
2023/04/07 03:50:40;;;;;;;12.63;9.60;;;6.10;99.90;;;;;;5091326;28;20420;-67
2023/04/07 03:53:07;;;;;;;16.23;10.50;;;6.10;99.90;;;;;;5089945;28;20329;-67
2023/04/07 03:55:33;;;;;;;17.30;9.70;;;6.10;99.90;;;;;;5091234;28;20413;-68
2023/04/07 03:57:58;;;;;;;16.40;9.47;;;6.10;99.90;;;;;;5091230;28;20507;-68
2023/04/07 04:00:25;;;;;;;13.67;10.00;;;6.10;99.90;;;;;;5091090;28;20557;-67
2023/04/07 04:02:51;;;;;;;11.40;8.47;;;6.10;99.90;;;;;;5089369;28;20220;-68
2023/04/07 04:05:17;;;;;;;14.40;9.80;;;6.00;99.90;;;;;;5091088;28;20416;-68
2023/04/07 04:07:42;;;;;;;13.53;9.40;;;6.00;99.90;;;;;;5090911;28;20770;-67
2023/04/07 04:10:08;;;;;;;15.27;10.07;;;6.00;99.90;;;;;;5090941;28;20209;-68
2023/04/07 04:12:34;;;;;;;12.07;8.77;;;6.00;99.90;;;;;;5090902;28;20677;-69
2023/04/07 04:14:59;;;;;;;12.57;8.57;;;6.10;99.90;;;;;;5090746;28;20756;-68
2023/04/07 04:17:25;;;;;;;16.93;10.23;;;6.20;99.90;;;;;;5089190;28;20182;-68
2023/04/07 04:19:51;;;;;;;12.60;8.87;;;6.20;99.90;;;;;;5089297;28;20194;-68
2023/04/07 04:22:17;;;;;;;12.70;8.50;;;6.20;99.90;;;;;;5089220;28;20194;-68
2023/04/07 04:24:43;;;;;;;13.20;8.60;;;6.30;99.90;;;;;;5090338;28;20585;-68
2023/04/07 04:27:09;;;;;;;12.63;8.40;;;6.30;99.90;;;;;;5090638;28;20415;-68
2023/04/07 04:29:34;;;;;;;14.53;8.30;;;6.40;99.90;;;;;;5090215;28;20434;-67
2023/04/07 04:32:00;;;;;;;11.17;8.20;;;6.40;99.90;;;;;;5090398;28;20206;-67
2023/04/07 04:34:26;;;;;;;13.43;7.83;;;6.50;99.90;;;;;;5090384;28;20240;-68
2023/04/07 04:36:52;;;;;;;13.90;8.60;;;6.40;99.90;;;;;;5088834;28;20712;-68
2023/04/07 04:39:17;;;;;;;10.53;8.50;;;6.50;99.90;;;;;;5090233;28;20427;-67
2023/04/07 04:41:44;;;;;;;12.20;8.83;;;6.50;99.90;;;;;;5090145;28;20310;-68
2023/04/07 04:44:10;;;;;;;13.10;8.70;;;6.60;99.90;;;;;;5090083;28;20202;-67
2023/04/07 04:46:35;;;;;;;14.97;8.60;;;6.60;99.90;;;;;;5090135;28;20474;-67
2023/04/07 04:49:01;;;;;;;9.43;7.67;;;6.60;99.90;;;;;;5088607;28;20178;-68
2023/04/07 04:51:27;;;;;;;13.20;7.77;;;6.60;99.90;;;;;;5088790;28;20240;-68
2023/04/07 04:53:52;;;;;;;10.80;7.27;;;6.70;99.90;;;;;;5090175;28;20666;-68
2023/04/07 04:56:18;;;;;;;11.33;7.90;;;6.60;99.90;;;;;;5090170;28;20182;-68
2023/04/07 04:58:46;;;;;;;10.53;7.43;;;6.60;99.90;;;;;;5089949;28;20189;-68
2023/04/07 05:01:12;;;;;;;11.13;7.53;;;6.80;99.90;;;;;;5088762;28;20186;-68
2023/04/07 05:03:38;;;;;;;18.20;7.20;;;6.80;99.90;;;;;;5089756;28;20464;-68
2023/04/07 05:06:04;;;;;;;12.80;8.43;;;6.80;99.90;;;;;;5089700;28;20440;-68
2023/04/07 05:08:30;;;;;;;10.67;7.17;;;6.90;99.90;;;;;;5089678;28;20466;-67
2023/04/07 05:10:56;;;;;;;13.00;7.13;;;6.80;99.90;;;;;;5089228;28;20951;-68
2023/04/07 05:13:22;;;;;;;14.10;10.77;;;6.80;99.90;;;;;;5089592;28;20206;-68
2023/04/07 05:15:48;;;;;;;22.13;15.73;;;6.80;99.90;;;;;;5088327;28;20429;-68
2023/04/07 05:18:13;;;;;;;29.30;19.90;;;6.80;99.90;;;;;;5089781;28;20174;-67
2023/04/07 05:20:39;;;;;;;16.70;12.20;;;6.80;99.90;;;;;;5088144;28;21177;-67
2023/04/07 05:23:04;;;;;;;11.97;9.17;;;6.80;99.90;;;;;;5089458;28;20203;-68
2023/04/07 05:25:31;;;;;;;18.47;8.23;;;6.90;99.90;;;;;;5088238;28;20650;-68
2023/04/07 05:27:58;;;;;;;9.10;7.30;;;6.90;99.90;;;;;;5089207;28;20589;-68
2023/04/07 05:30:24;;;;;;;13.03;9.03;;;6.90;99.90;;;;;;5087641;28;20976;-67
2023/04/07 05:32:51;;;;;;;11.47;7.97;;;6.80;99.90;;;;;;5089445;28;20531;-67
2023/04/07 05:35:16;;;;;;;14.17;8.80;;;6.60;99.90;;;;;;5089319;28;20251;-69
2023/04/07 05:37:42;;;;;;;10.80;8.63;;;6.70;99.90;;;;;;5087748;28;20452;-69
2023/04/07 05:40:08;;;;;;;10.53;7.47;;;6.60;99.90;;;;;;5087902;28;20189;-69
2023/04/07 05:42:33;;;;;;;10.87;8.73;;;6.70;99.90;;;;;;5088843;28;20212;-68
2023/04/07 05:44:59;;;;;;;13.97;9.90;;;6.80;99.90;;;;;;5089356;28;20416;-67
2023/04/07 05:47:24;;;;;;;22.60;10.67;;;6.80;99.90;;;;;;5087851;28;20210;-68
2023/04/07 05:49:50;;;;;;;14.50;10.70;;;6.90;99.90;;;;;;5089038;28;20179;-68
2023/04/07 05:52:16;;;;;;;15.60;12.03;;;6.90;99.90;;;;;;5089229;28;20205;-69
2023/04/07 05:54:41;;;;;;;13.07;9.67;;;6.90;99.90;;;;;;5087785;28;20182;-68
2023/04/07 05:57:07;;;;;;;13.47;9.00;;;6.90;99.90;;;;;;5087621;28;20605;-68
2023/04/07 05:59:34;;;;;;;12.90;9.80;;;6.80;99.90;;;;;;5087424;28;20896;-69
2023/04/07 06:02:00;;;;;;;13.50;9.57;;;6.80;99.90;;;;;;5088952;28;20940;-68
2023/04/07 06:04:25;;;;;;;11.93;7.97;;;6.80;99.90;;;;;;5088938;28;20471;-68
2023/04/07 06:06:54;;;;;;;13.80;8.27;;;6.90;99.90;;;;;;5088958;28;20178;-68
2023/04/07 06:09:21;;;;;;;12.00;9.03;;;6.90;99.90;;;;;;5089026;28;20178;-69
2023/04/07 06:11:46;;;;;;;12.03;8.27;;;6.90;99.90;;;;;;5088722;28;20893;-68
2023/04/07 06:14:12;;;;;;;11.00;8.67;;;6.90;99.90;;;;;;5089093;28;20455;-68
2023/04/07 06:16:38;;;;;;;13.40;9.27;;;7.00;99.90;;;;;;5089207;28;20677;-68
2023/04/07 06:19:04;;;;;;;14.30;10.03;;;7.00;99.90;;;;;;5087824;28;20420;-69
2023/04/07 06:21:30;;;;;;;18.53;10.67;;;7.10;99.90;;;;;;5088770;28;20554;-68
2023/04/07 06:23:56;;;;;;;15.33;10.57;;;7.10;99.90;;;;;;5089464;28;20207;-69
2023/04/07 06:26:22;;;;;;;14.33;10.53;;;7.20;99.90;;;;;;5089531;28;20427;-69
2023/04/07 06:28:48;;;;;;;13.73;10.63;;;7.20;99.90;;;;;;5088207;28;20178;-69
2023/04/07 06:31:13;;;;;;;15.23;9.70;;;7.20;99.90;;;;;;5089238;28;20480;-69
2023/04/07 06:33:39;;;;;;;14.80;8.43;;;7.20;99.90;;;;;;5089415;28;20615;-69
2023/04/07 06:36:05;;;;;;;11.97;8.27;;;7.20;99.90;;;;;;5087879;28;20206;-69
2023/04/07 06:38:31;;;;;;;14.60;9.67;;;7.30;99.90;;;;;;5089039;28;20204;-69
2023/04/07 06:40:56;;;;;;;18.57;10.30;;;7.40;99.90;;;;;;5087411;28;20425;-69
2023/04/07 06:43:22;;;;;;;16.33;11.60;;;7.40;99.90;;;;;;5088462;28;20467;-68
2023/04/07 06:45:47;;;;;;;16.03;11.47;;;7.40;99.90;;;;;;5088733;28;20239;-72
2023/04/07 06:48:13;;;;;;;22.27;12.00;;;7.50;99.90;;;;;;5088890;28;20265;-68
2023/04/07 06:50:39;;;;;;;15.40;11.10;;;7.60;99.90;;;;;;5088627;28;20178;-69
2023/04/07 06:53:04;;;;;;;17.30;10.63;;;7.60;99.90;;;;;;5088453;28;20203;-69
2023/04/07 06:55:30;;;;;;;12.43;9.47;;;7.60;99.90;;;;;;5088401;28;20209;-69
2023/04/07 06:57:56;;;;;;;13.87;10.70;;;7.60;99.90;;;;;;5088571;28;20197;-69
2023/04/07 07:00:21;;;;;;;17.33;11.03;;;7.70;99.90;;;;;;5088639;28;20189;-68
2023/04/07 07:02:48;;;;;;;21.33;13.83;;;7.70;99.90;;;;;;5088284;28;20198;-69
2023/04/07 07:05:14;;;;;;;15.97;10.77;;;7.70;99.90;;;;;;5088202;28;20739;-69
2023/04/07 07:07:39;;;;;;;24.73;14.63;;;7.80;99.90;;;;;;5088232;28;20458;-69
2023/04/07 07:10:11;;;;;;;20.00;12.67;;;7.80;99.90;;;;;;5086935;28;20649;-69
2023/04/07 07:12:37;;;;;;;15.33;11.73;;;8.00;99.90;;;;;;5086888;28;20207;-69
2023/04/07 07:15:03;;;;;;;16.60;11.30;;;8.20;99.90;;;;;;5085399;28;20419;-69
2023/04/07 07:17:29;;;;;;;12.50;9.70;;;8.30;99.90;;;;;;5085109;28;20195;-69
2023/04/07 07:19:55;;;;;;;14.90;10.60;;;8.40;99.90;;;;;;5085195;28;20435;-68
2023/04/07 07:22:20;;;;;;;14.37;10.00;;;8.50;99.90;;;;;;5086552;28;20545;-68
2023/04/07 07:24:46;;;;;;;13.27;9.60;;;8.60;99.90;;;;;;5086796;28;20251;-68
2023/04/07 07:27:11;;;;;;;12.00;9.47;;;8.70;99.90;;;;;;5086775;28;20197;-68
2023/04/07 07:29:37;;;;;;;12.83;9.50;;;8.80;99.90;;;;;;5085642;28;20187;-68
2023/04/07 07:32:03;;;;;;;12.53;9.27;;;8.80;99.90;;;;;;5086743;28;20202;-69
2023/04/07 07:34:29;;;;;;;13.83;10.73;;;8.90;99.90;;;;;;5088032;28;20209;-69
2023/04/07 07:36:54;;;;;;;13.43;9.40;;;8.90;99.90;;;;;;5088663;28;20194;-69
2023/04/07 07:39:20;;;;;;;14.90;11.20;;;9.00;99.90;;;;;;5090364;28;20425;-69
2023/04/07 07:41:46;;;;;;;11.60;9.20;;;9.00;99.90;;;;;;5090283;28;20820;-69
2023/04/07 07:44:11;;;;;;;26.40;13.63;;;9.10;99.90;;;;;;5090123;28;20961;-68
2023/04/07 07:46:37;;;;;;;17.50;11.87;;;9.10;99.90;;;;;;5090326;28;20179;-68
2023/04/07 07:49:04;;;;;;;14.47;10.20;;;9.20;99.90;;;;;;5088592;28;20228;-69
2023/04/07 07:51:30;;;;;;;14.73;9.30;;;9.20;99.90;;;;;;5090119;28;20202;-69
2023/04/07 07:53:55;;;;;;;12.53;9.33;;;9.30;99.90;;;;;;5090320;28;21041;-68
2023/04/07 07:56:21;;;;;;;17.33;9.60;;;9.40;99.90;;;;;;5090353;28;20193;-68
2023/04/07 07:58:47;;;;;;;16.10;11.00;;;9.60;99.90;;;;;;5090354;28;20178;-68
2023/04/07 08:01:12;;;;;;;15.33;10.63;;;9.70;99.90;;;;;;5090389;28;20228;-68
2023/04/07 08:03:38;;;;;;;15.70;10.90;;;9.70;99.90;;;;;;5088846;28;20278;-68
2023/04/07 08:06:04;;;;;;;14.17;10.60;;;9.90;99.90;;;;;;5090544;28;20675;-68
2023/04/07 08:08:30;;;;;;;15.50;10.10;;;10.00;99.90;;;;;;5090384;28;20187;-68
2023/04/07 08:10:55;;;;;;;14.50;9.70;;;10.10;99.90;;;;;;5088763;28;20916;-68
2023/04/07 08:13:21;;;;;;;15.50;12.63;;;10.30;99.90;;;;;;5090206;28;20216;-68
2023/04/07 08:15:46;;;;;;;11.70;8.67;;;10.30;99.90;;;;;;5090359;28;20265;-68
2023/04/07 08:18:12;;;;;;;10.27;7.07;;;10.30;99.90;;;;;;5088522;28;20187;-68
2023/04/07 08:20:37;;;;;;;14.07;8.87;;;10.40;99.90;;;;;;5088300;28;20183;-69
2023/04/07 08:23:03;;;;;;;11.40;6.73;;;10.50;99.90;;;;;;5089640;28;20204;-69
2023/04/07 08:25:29;;;;;;;9.53;5.97;;;10.60;99.90;;;;;;5088087;28;20244;-69
2023/04/07 08:27:55;;;;;;;8.83;6.57;;;10.60;99.90;;;;;;5089294;28;20764;-68
2023/04/07 08:30:21;;;;;;;7.87;6.00;;;10.50;99.90;;;;;;5089244;28;20187;-68
2023/04/07 08:32:46;;;;;;;7.60;6.23;;;10.70;99.90;;;;;;5089147;28;20227;-69
2023/04/07 08:35:12;;;;;;;11.97;6.50;;;10.80;99.90;;;;;;5087488;28;20513;-68
2023/04/07 08:37:39;;;;;;;12.20;6.37;;;10.90;99.90;;;;;;5089061;28;20202;-69
2023/04/07 08:40:06;;;;;;;7.83;5.93;;;11.00;99.90;;;;;;5089028;28;20249;-69
2023/04/07 08:42:33;;;;;;;7.77;5.87;;;11.00;99.90;;;;;;5088791;28;20443;-69
2023/04/07 08:45:04;;;;;;;6.83;5.67;;;11.10;99.90;;;;;;5086318;28;20463;-70
2023/04/07 08:47:34;;;;;;;7.50;5.40;;;11.10;99.90;;;;;;5089031;28;20414;-69
2023/04/07 08:50:02;;;;;;;5.73;4.80;;;11.30;99.90;;;;;;5088863;28;20455;-69
2023/04/07 08:52:48;;;;;;;6.03;5.13;;;11.20;99.90;;;;;;5088861;28;20521;-69
2023/04/07 08:55:14;;;;;;;7.30;4.60;;;11.50;99.90;;;;;;5088695;28;20436;-69
2023/04/07 08:57:41;;;;;;;8.80;5.43;;;11.50;99.90;;;;;;5088563;28;20833;-69
2023/04/07 09:00:08;;;;;;;5.37;4.37;;;11.80;99.90;;;;;;5087094;28;20471;-69
2023/04/07 09:02:37;;;;;;;5.70;3.67;;;12.00;99.90;;;;;;5088612;28;20948;-70
2023/04/07 09:05:04;;;;;;;7.60;4.83;;;12.20;98.90;;;;;;5088506;28;20892;-70
2023/04/07 09:07:34;;;;;;;5.30;3.93;;;12.30;99.00;;;;;;5088819;28;20533;-69
2023/04/07 09:10:00;;;;;;;5.90;4.07;;;12.10;97.10;;;;;;5088534;28;20508;-69
2023/04/07 09:12:30;;;;;;;4.83;4.30;;;12.30;97.80;;;;;;5086864;28;20433;-69
2023/04/07 09:14:56;;;;;;;4.87;4.30;;;12.50;96.40;;;;;;5088407;28;20477;-69
2023/04/07 09:17:25;;;;;;;5.60;4.50;;;13.10;95.20;;;;;;5088449;28;20528;-69
2023/04/07 09:19:52;;;;;;;5.53;4.13;;;14.40;95.50;;;;;;5087249;28;20906;-69
2023/04/07 09:22:53;;;;;;;8.30;7.20;;;15.50;94.00;;;;;;5088989;28;20921;-69
2023/04/07 09:25:25;;;;;;;16.30;14.33;;;16.60;91.60;;;;;;5005783;28;20443;-69
2023/04/07 09:28:02;;;;;;;22.00;15.50;;;16.50;90.00;;;;;;5075268;28;20633;-69
2023/04/07 09:30:30;;;;;;;6.67;4.40;;;16.80;87.00;;;;;;5088546;28;20923;-69
2023/04/07 09:32:57;;;;;;;6.30;4.10;;;17.30;84.10;;;;;;5088736;28;20480;-70
2023/04/07 09:35:23;;;;;;;8.63;7.73;;;17.10;81.00;;;;;;5088666;28;20415;-69
2023/04/07 09:38:06;;;;;;;6.73;5.23;;;17.50;81.90;;;;;;5087107;28;20428;-69
2023/04/07 09:40:33;;;;;;;84.47;20.73;;;17.80;80.30;;;;;;5088639;28;20404;-69
2023/04/07 09:43:02;;;;;;;4.20;3.60;;;18.70;85.40;;;;;;5088435;28;20444;-69
2023/04/07 09:45:38;;;;;;;4.73;3.60;;;18.80;75.40;;;;;;5087188;28;20470;-70
2023/04/07 09:48:18;;;;;;;10.57;4.20;;;18.30;72.50;;;;;;5088507;28;20563;-69
2023/04/07 09:50:48;;;;;;;6.57;3.07;;;18.50;71.50;;;;;;5088489;28;20409;-69
2023/04/07 09:53:14;;;;;;;13.20;10.90;;;18.30;68.60;;;;;;5086340;28;20985;-69
2023/04/07 09:55:41;;;;;;;6.53;5.83;;;18.50;71.30;;;;;;5087686;28;20939;-69
2023/04/07 09:58:08;;;;;;;5.73;4.80;;;18.80;71.80;;;;;;5087744;28;20432;-69
2023/04/07 10:00:34;;;;;;;4.60;3.37;;;19.00;69.70;;;;;;5087633;28;20558;-69
2023/04/07 10:03:00;;;;;;;43.70;38.83;;;19.00;71.50;;;;;;5085899;28;20463;-69
2023/04/07 10:05:26;;;;;;;7.47;4.67;;;19.20;71.20;;;;;;5087794;28;20898;-69
2023/04/07 10:07:53;;;;;;;8.53;5.63;;;19.50;71.80;;;;;;5087719;28;20790;-69
2023/04/07 10:10:19;;;;;;;7.63;4.43;;;19.00;68.50;;;;;;5087710;28;20420;-69
2023/04/07 10:12:47;;;;;;;6.50;4.90;;;19.10;70.50;;;;;;5087396;28;20436;-69
2023/04/07 10:15:15;;;;;;;6.40;2.80;;;18.60;67.70;;;;;;5086007;28;20304;-69
2023/04/07 10:17:46;;;;;;;7.70;6.43;;;17.60;65.00;;;;;;5087402;28;20472;-69
2023/04/07 10:20:13;;;;;;;5.57;2.90;;;17.20;70.60;;;;;;5087359;28;20421;-69
2023/04/07 10:22:41;;;;;;;8.80;2.67;;;16.90;69.50;;;;;;5086939;28;20639;-72
2023/04/07 10:25:13;;;;;;;6.80;6.10;;;17.50;71.00;;;;;;5086852;28;21044;-68
2023/04/07 10:27:50;;;;;;;8.73;3.00;;;18.30;71.90;;;;;;5087087;28;20420;-69
2023/04/07 10:30:31;;;;;;;6.17;3.10;;;18.90;70.40;;;;;;5087008;28;20418;-69
2023/04/07 10:32:57;;;;;;;6.50;2.57;;;18.70;65.90;;;;;;5087375;28;20433;-69
2023/04/07 10:35:23;;;;;;;6.60;2.70;;;18.30;65.30;;;;;;5087013;28;20437;-70
2023/04/07 10:38:09;;;;;;;5.27;3.07;;;17.80;67.80;;;;;;5087098;28;20965;-70
2023/04/07 10:40:36;;;;;;;4.20;2.30;;;17.50;71.10;;;;;;5087194;28;20418;-69
2023/04/07 10:43:02;;;;;;;14.47;8.77;;;17.30;70.30;;;;;;5087076;28;20507;-69
2023/04/07 10:45:47;;;;;;;13.00;11.47;;;17.00;69.30;;;;;;5087416;28;20466;-69
2023/04/07 10:48:16;;;;;;;6.77;4.97;;;16.30;68.60;;;;;;5087557;28;20910;-69
2023/04/07 10:50:42;;;;;;;32.03;24.53;;;16.00;70.10;;;;;;5087432;28;20449;-69
2023/04/07 10:53:12;;;;;;;8.00;4.57;;;15.80;73.70;;;;;;5087174;28;20503;-69
2023/04/07 10:55:45;;;;;;;10.43;7.53;;;15.60;73.90;;;;;;5087664;28;20189;-69
2023/04/07 10:58:14;;;;;;;10.77;5.67;;;15.40;74.40;;;;;;5086997;28;20426;-69
2023/04/07 11:00:40;;;;;;;4.40;2.67;;;15.30;76.00;;;;;;5086691;28;20451;-68
2023/04/07 11:03:13;;;;;;;10.53;5.87;;;15.20;76.80;;;;;;5086920;28;20915;-68
2023/04/07 11:05:40;;;;;;;12.23;8.77;;;14.90;74.30;;;;;;5086686;28;20476;-69
2023/04/07 11:08:06;;;;;;;5.20;3.20;;;14.90;76.00;;;;;;5087515;28;20510;-68
2023/04/07 11:10:33;;;;;;;10.57;6.50;;;14.90;76.90;;;;;;5090948;28;20421;-69
2023/04/07 11:13:04;;;;;;;10.67;5.60;;;14.90;78.20;;;;;;5090259;28;20450;-69
2023/04/07 11:15:29;;;;;;;12.47;7.70;;;15.00;80.70;;;;;;5090488;28;20939;-69
2023/04/07 11:18:12;;;;;;;7.37;4.67;;;14.80;80.60;;;;;;5090314;28;20416;-69
2023/04/07 11:20:51;;;;;;;6.00;4.87;;;14.70;80.90;;;;;;5090201;28;20194;-69
2023/04/07 11:23:18;;;;;;;6.73;4.43;;;14.70;83.40;;;;;;5089912;28;20912;-69
2023/04/07 11:25:46;;;;;;;9.97;4.83;;;14.70;81.20;;;;;;5090072;28;20868;-69
2023/04/07 11:28:12;;;;;;;57.27;35.67;;;14.70;81.70;;;;;;5088773;28;20864;-69
2023/04/07 11:30:43;;;;;;;5.53;4.33;;;14.60;82.50;;;;;;5090081;28;21233;-68
2023/04/07 11:33:14;;;;;;;7.20;4.70;;;14.40;83.30;;;;;;5088869;28;20445;-69
2023/04/07 11:35:50;;;;;;;7.87;4.10;;;14.50;82.70;;;;;;5090228;28;20419;-70
2023/04/07 11:38:17;;;;;;;11.10;5.13;;;14.30;82.70;;;;;;5090391;28;20526;-69
2023/04/07 11:40:42;;;;;;;4.97;3.90;;;14.40;85.50;;;;;;5090083;28;20424;-69
2023/04/07 11:43:25;;;;;;;16.70;5.10;;;14.30;84.40;;;;;;5090039;28;20552;-68
2023/04/07 11:46:10;;;;;;;8.70;4.73;;;14.40;88.40;;;;;;5089942;28;20566;-68
2023/04/07 11:48:38;;;;;;;728.33;531.03;;;14.40;83.90;;;;;;5090187;28;20464;-69
2023/04/07 11:51:04;;;;;;;10.53;7.97;;;14.30;83.50;;;;;;5090215;28;20420;-69
2023/04/07 11:53:32;;;;;;;96.67;55.87;;;14.00;84.60;;;;;;5090154;28;20514;-69
2023/04/07 11:56:04;;;;;;;10.10;6.20;;;14.00;87.10;;;;;;5089860;28;20424;-69
2023/04/07 11:58:29;;;;;;;7.47;4.50;;;14.00;87.10;;;;;;5090043;28;20432;-69
2023/04/07 12:00:56;;;;;;;8.03;5.30;;;14.00;85.50;;;;;;5089700;28;20446;-70
2023/04/07 12:03:22;;;;;;;56.70;35.33;;;14.00;87.70;;;;;;5090048;28;20218;-68
2023/04/07 12:05:48;;;;;;;6.50;4.20;;;14.00;87.80;;;;;;5090327;28;20468;-69
2023/04/07 12:08:17;;;;;;;7.10;4.80;;;13.80;87.20;;;;;;5090135;28;20427;-69
2023/04/07 12:10:44;;;;;;;12.23;5.40;;;14.00;88.90;;;;;;5090009;28;20189;-69
2023/04/07 12:13:12;;;;;;;5.93;4.30;;;14.00;87.70;;;;;;5090009;28;20569;-68
2023/04/07 12:15:38;;;;;;;21.83;14.50;;;14.00;89.10;;;;;;5090233;28;20420;-69
2023/04/07 12:18:04;;;;;;;20.93;14.60;;;13.90;88.40;;;;;;5089707;28;20434;-69
2023/04/07 12:20:30;;;;;;;16.13;10.10;;;13.80;89.40;;;;;;5086415;28;20221;-70
2023/04/07 12:22:56;;;;;;;24.20;17.60;;;13.80;90.10;;;;;;5087403;28;20563;-69
2023/04/07 12:25:22;;;;;;;12.80;8.23;;;13.70;90.20;;;;;;5089235;28;20730;-69
2023/04/07 12:27:48;;;;;;;22.17;16.07;;;13.60;90.70;;;;;;5089065;28;20501;-69
2023/04/07 12:30:13;;;;;;;14.13;12.17;;;13.40;88.50;;;;;;5088889;28;20193;-69
2023/04/07 12:32:39;;;;;;;10.93;9.53;;;13.20;85.50;;;;;;5087377;28;20216;-70
2023/04/07 12:35:05;;;;;;;14.00;11.73;;;13.00;86.60;;;;;;5088847;28;20569;-69
2023/04/07 12:37:31;;;;;;;5.10;4.03;;;12.70;85.00;;;;;;5088888;28;20258;-69
2023/04/07 12:39:57;;;;;;;9.77;8.77;;;12.40;87.80;;;;;;5087170;28;20780;-69
2023/04/07 12:42:23;;;;;;;53.27;28.00;;;12.30;90.40;;;;;;5088628;28;20438;-69
2023/04/07 12:44:49;;;;;;;37.73;26.97;;;12.10;91.80;;;;;;5088534;28;20993;-68